Time;durP1;ratioP1;P1;durP2;ratioP2;P2;SDS_P1;SDS_P2;PMS_P1;PMS_P2;Temp;Humidity;BMP_temperature;BMP_pressure;BME280_temperature;BME280_humidity;BME280_pressure;Samples;Min_cycle;Max_cycle;Signal;HPM_P1;HPM_P2
2021/12/30 00:00:15;;;;;;;35.10;18.45;;;10.50;99.90;;;;;;12514438;28;20512;-39
2021/12/30 00:06:24;;;;;;;34.05;18.48;;;10.60;99.90;;;;;;12528091;28;20471;-38
2021/12/30 00:12:31;;;;;;;38.78;18.17;;;10.60;99.90;;;;;;12531900;28;20076;-38
2021/12/30 00:18:44;;;;;;;35.08;17.70;;;10.70;99.90;;;;;;12530325;28;20060;-38
2021/12/30 00:24:50;;;;;;;31.65;18.05;;;10.70;99.90;;;;;;12461506;28;20628;-39
2021/12/30 00:30:56;;;;;;;34.33;17.00;;;10.70;99.90;;;;;;12454442;28;20049;-39
2021/12/30 00:37:00;;;;;;;36.33;16.95;;;10.80;99.90;;;;;;12478908;28;20064;-38
2021/12/30 00:43:05;;;;;;;41.20;17.38;;;10.70;99.90;;;;;;12470195;28;20083;-40
2021/12/30 00:49:13;;;;;;;37.20;15.68;;;10.70;99.90;;;;;;12475973;28;20041;-39
2021/12/30 00:55:17;;;;;;;37.38;15.35;;;10.80;99.90;;;;;;12458782;28;20064;-40
2021/12/30 01:01:22;;;;;;;37.67;12.82;;;10.70;99.90;;;;;;12459778;28;20049;-39
2021/12/30 01:07:30;;;;;;;34.53;12.20;;;10.80;99.90;;;;;;12480311;28;20132;-39
2021/12/30 01:13:45;;;;;;;35.15;11.30;;;10.80;99.90;;;;;;12481083;28;20053;-39
2021/12/30 01:19:53;;;;;;;31.67;11.07;;;10.90;99.90;;;;;;12477588;28;20068;-39
2021/12/30 01:25:59;;;;;;;32.38;10.48;;;10.90;99.90;;;;;;12515383;28;20098;-39
2021/12/30 01:32:05;;;;;;;26.85;8.90;;;10.90;99.90;;;;;;12535897;28;20152;-39
2021/12/30 01:38:12;;;;;;;21.52;8.35;;;10.80;99.90;;;;;;12528194;28;20105;-39
2021/12/30 01:44:16;;;;;;;28.33;8.43;;;10.80;99.90;;;;;;12526930;28;20080;-39
2021/12/30 01:50:24;;;;;;;34.83;8.48;;;10.70;99.90;;;;;;12526971;28;20443;-39
2021/12/30 01:56:32;;;;;;;35.05;8.45;;;10.70;99.90;;;;;;12533990;28;20087;-39
2021/12/30 02:02:37;;;;;;;33.67;7.55;;;10.60;99.90;;;;;;12511259;28;20056;-38
2021/12/30 02:08:43;;;;;;;37.53;8.30;;;10.60;99.90;;;;;;12535717;28;20044;-38
2021/12/30 02:14:46;;;;;;;29.60;6.93;;;10.50;99.90;;;;;;12529352;28;20641;-39
2021/12/30 02:20:55;;;;;;;35.22;6.85;;;10.50;99.90;;;;;;12529401;28;20554;-41
2021/12/30 02:26:59;;;;;;;32.67;7.75;;;10.50;99.90;;;;;;12530877;28;20045;-40
2021/12/30 02:33:06;;;;;;;39.97;6.90;;;10.50;99.90;;;;;;12526046;28;20072;-40
2021/12/30 02:39:13;;;;;;;36.53;7.78;;;10.40;99.90;;;;;;12529521;28;20048;-39
2021/12/30 02:45:15;;;;;;;38.83;6.55;;;10.40;99.90;;;;;;12526981;28;20053;-40
2021/12/30 02:51:21;;;;;;;29.45;6.97;;;10.40;99.90;;;;;;12528089;28;20069;-40
2021/12/30 02:57:26;;;;;;;37.80;6.93;;;10.30;99.90;;;;;;12509973;28;20059;-40
2021/12/30 03:03:29;;;;;;;38.13;8.10;;;10.30;99.90;;;;;;12497048;28;20044;-40
2021/12/30 03:09:33;;;;;;;35.30;8.55;;;10.30;99.90;;;;;;12510133;28;20075;-39
2021/12/30 03:15:45;;;;;;;32.78;7.97;;;10.30;99.90;;;;;;12526843;28;20048;-39
2021/12/30 03:21:50;;;;;;;32.65;8.55;;;10.40;99.90;;;;;;12524709;28;20398;-38
2021/12/30 03:27:55;;;;;;;35.60;7.72;;;10.30;99.90;;;;;;12531621;28;20065;-39
2021/12/30 03:34:00;;;;;;;35.03;8.52;;;10.20;99.90;;;;;;12527697;28;20048;-40
2021/12/30 03:40:08;;;;;;;33.38;8.75;;;10.20;99.90;;;;;;12527970;28;20135;-38
2021/12/30 03:46:11;;;;;;;35.20;9.52;;;10.30;99.90;;;;;;12527100;28;20057;-40
2021/12/30 03:52:23;;;;;;;32.92;10.23;;;10.20;99.90;;;;;;12523332;28;20048;-38
2021/12/30 03:58:30;;;;;;;36.10;10.65;;;10.20;99.90;;;;;;12530242;28;20044;-38
2021/12/30 04:04:36;;;;;;;35.00;9.55;;;10.10;99.90;;;;;;12524168;28;20057;-40
2021/12/30 04:10:38;;;;;;;34.38;10.63;;;10.10;99.90;;;;;;12529067;28;20055;-39
2021/12/30 04:16:41;;;;;;;45.15;11.55;;;10.10;99.90;;;;;;12520724;28;20069;-39
2021/12/30 04:22:44;;;;;;;42.92;11.75;;;10.10;99.90;;;;;;12522938;28;20080;-38
2021/12/30 04:28:51;;;;;;;39.13;12.18;;;10.10;99.90;;;;;;12527075;28;20056;-38
2021/12/30 04:34:58;;;;;;;41.28;14.23;;;10.10;99.90;;;;;;12513723;28;20053;-38
2021/12/30 04:41:03;;;;;;;48.58;16.02;;;10.20;99.90;;;;;;12530701;28;20074;-38
2021/12/30 04:47:07;;;;;;;49.25;17.40;;;10.20;99.90;;;;;;12529632;28;20044;-39
2021/12/30 04:53:15;;;;;;;50.53;17.88;;;10.30;99.90;;;;;;12506812;28;20053;-40
2021/12/30 04:59:19;;;;;;;44.45;16.75;;;10.30;99.90;;;;;;12537811;28;20182;-39
2021/12/30 05:05:23;;;;;;;48.72;17.55;;;10.40;99.90;;;;;;12519433;28;20540;-39
2021/12/30 05:11:26;;;;;;;44.22;17.77;;;10.40;99.90;;;;;;12535252;28;20587;-38
2021/12/30 05:17:29;;;;;;;49.55;17.27;;;10.40;99.90;;;;;;12535013;28;20049;-39
2021/12/30 05:23:33;;;;;;;43.22;17.05;;;10.40;99.90;;;;;;12477360;28;20053;-40
2021/12/30 05:29:36;;;;;;;52.87;16.73;;;10.50;99.90;;;;;;12485609;28;20053;-38
2021/12/30 05:35:41;;;;;;;50.80;18.88;;;10.50;99.90;;;;;;12461298;28;20296;-39
2021/12/30 05:41:47;;;;;;;49.67;18.35;;;10.60;99.90;;;;;;12485297;28;20060;-38
2021/12/30 05:47:52;;;;;;;53.95;20.70;;;10.60;99.90;;;;;;12481646;28;20468;-40
2021/12/30 05:53:55;;;;;;;60.13;22.50;;;10.60;99.90;;;;;;12483924;28;20588;-39
2021/12/30 05:59:58;;;;;;;57.60;24.60;;;10.60;99.90;;;;;;12479525;28;20510;-40
2021/12/30 06:06:00;;;;;;;54.95;26.85;;;10.50;99.90;;;;;;12478826;28;20154;-40
2021/12/30 06:12:03;;;;;;;64.40;28.27;;;10.50;99.90;;;;;;12460914;28;20052;-40
2021/12/30 06:18:06;;;;;;;62.00;28.15;;;10.50;99.90;;;;;;12477750;28;20049;-39
2021/12/30 06:24:09;;;;;;;65.03;28.47;;;10.60;99.90;;;;;;12517064;28;20153;-39
2021/12/30 06:30:12;;;;;;;64.13;28.30;;;10.60;99.90;;;;;;12526159;28;20390;-39
2021/12/30 06:36:14;;;;;;;56.67;26.45;;;10.60;99.90;;;;;;12527039;28;20139;-39
2021/12/30 06:42:16;;;;;;;47.65;26.25;;;10.70;99.90;;;;;;12527558;28;20053;-40
2021/12/30 06:48:18;;;;;;;45.58;24.15;;;10.70;99.90;;;;;;12527502;28;20044;-38
2021/12/30 06:54:21;;;;;;;46.72;21.55;;;10.80;99.90;;;;;;12525216;28;20110;-41
2021/12/30 07:00:23;;;;;;;34.78;19.33;;;10.80;99.90;;;;;;12525506;28;20588;-40
2021/12/30 07:06:25;;;;;;;37.80;18.65;;;10.80;99.90;;;;;;12526350;28;20041;-39
2021/12/30 07:12:27;;;;;;;37.58;19.50;;;10.90;99.90;;;;;;12527368;28;20050;-40
2021/12/30 07:18:30;;;;;;;36.92;19.15;;;11.00;99.90;;;;;;12527746;28;20072;-40
2021/12/30 07:24:32;;;;;;;40.97;19.90;;;11.00;99.90;;;;;;12527459;28;20087;-40
2021/12/30 07:30:35;;;;;;;41.38;19.63;;;11.10;99.90;;;;;;12524774;28;20068;-38
2021/12/30 07:36:38;;;;;;;39.08;20.40;;;11.10;99.90;;;;;;12530920;28;20770;-38
2021/12/30 07:42:40;;;;;;;39.67;20.60;;;11.20;99.90;;;;;;12529976;28;20056;-40
2021/12/30 07:48:43;;;;;;;37.55;19.23;;;11.20;99.90;;;;;;12529965;28;20507;-39
2021/12/30 07:54:47;;;;;;;37.03;20.48;;;11.30;99.90;;;;;;12505963;28;20139;-38
2021/12/30 08:00:52;;;;;;;33.20;19.17;;;11.40;99.90;;;;;;12525376;28;20077;-39
2021/12/30 08:06:58;;;;;;;35.95;19.98;;;11.40;99.90;;;;;;12525879;28;20075;-39
2021/12/30 08:13:08;;;;;;;37.05;19.25;;;11.40;99.90;;;;;;12514039;28;20048;-40
2021/12/30 08:19:18;;;;;;;28.95;17.48;;;11.50;99.90;;;;;;12531269;28;20064;-39
2021/12/30 08:25:34;;;;;;;35.45;19.10;;;11.50;99.90;;;;;;12520639;28;20076;-41
2021/12/30 08:31:39;;;;;;;37.60;20.60;;;11.60;99.90;;;;;;12527072;28;20056;-40
2021/12/30 08:37:45;;;;;;;44.75;22.40;;;11.60;99.90;;;;;;12526802;28;20885;-40
2021/12/30 08:43:51;;;;;;;40.45;21.90;;;11.70;99.90;;;;;;12527329;28;20075;-39
2021/12/30 08:49:55;;;;;;;41.15;21.42;;;11.70;99.90;;;;;;12521671;28;20045;-38
2021/12/30 08:55:57;;;;;;;31.30;17.75;;;11.80;99.90;;;;;;12518931;28;20060;-39
2021/12/30 09:02:00;;;;;;;32.22;17.10;;;11.80;99.90;;;;;;12519231;28;20060;-40
2021/12/30 09:08:05;;;;;;;33.47;13.77;;;11.80;99.90;;;;;;12515558;28;20458;-39
2021/12/30 09:14:07;;;;;;;21.83;13.32;;;11.80;99.90;;;;;;12519610;28;20118;-39
2021/12/30 09:20:15;;;;;;;16.58;11.25;;;11.90;99.90;;;;;;12516892;28;20052;-39
2021/12/30 09:26:16;;;;;;;16.58;9.63;;;11.90;99.90;;;;;;12517551;28;20132;-39
2021/12/30 09:32:19;;;;;;;14.75;10.45;;;11.90;99.90;;;;;;12519269;28;20041;-40
2021/12/30 09:38:22;;;;;;;13.48;10.13;;;12.00;99.90;;;;;;12518082;28;20048;-40
2021/12/30 09:44:26;;;;;;;14.65;10.38;;;12.00;99.90;;;;;;12500660;28;20057;-38
2021/12/30 09:50:33;;;;;;;15.27;11.55;;;12.10;99.90;;;;;;12506084;28;20168;-40
2021/12/30 09:56:37;;;;;;;14.27;10.38;;;12.10;99.90;;;;;;12531716;28;20084;-39
2021/12/30 10:02:43;;;;;;;15.45;9.73;;;12.20;99.90;;;;;;12532199;28;20060;-40
2021/12/30 10:08:56;;;;;;;12.75;9.35;;;12.40;99.90;;;;;;12530911;28;20084;-41
2021/12/30 10:15:01;;;;;;;12.07;8.38;;;12.40;99.90;;;;;;12511807;28;20064;-39
2021/12/30 10:21:18;;;;;;;13.63;8.20;;;12.50;99.90;;;;;;12532610;28;20045;-39
2021/12/30 10:27:29;;;;;;;12.25;6.88;;;12.60;99.90;;;;;;12530117;28;20595;-39
2021/12/30 10:33:31;;;;;;;9.15;6.07;;;12.70;99.90;;;;;;12532065;28;20065;-39
2021/12/30 10:39:34;;;;;;;10.52;5.93;;;12.70;99.90;;;;;;12510144;28;20462;-40
2021/12/30 10:45:36;;;;;;;7.60;5.53;;;12.70;99.90;;;;;;12523549;28;20051;-40
2021/12/30 10:51:43;;;;;;;8.65;5.15;;;12.70;99.90;;;;;;12499659;28;20049;-40
2021/12/30 10:57:45;;;;;;;7.10;5.47;;;12.70;99.90;;;;;;12527454;28;20053;-38
2021/12/30 11:03:56;;;;;;;9.88;6.07;;;12.70;99.90;;;;;;12523941;28;20060;-41
2021/12/30 11:10:00;;;;;;;7.45;5.90;;;12.80;99.90;;;;;;12506332;28;20053;-39
2021/12/30 11:16:06;;;;;;;7.30;6.22;;;12.90;99.90;;;;;;12529064;28;20756;-38
2021/12/30 11:22:19;;;;;;;8.82;6.07;;;13.00;99.90;;;;;;12526208;28;20870;-39
2021/12/30 11:28:28;;;;;;;8.57;6.05;;;13.00;99.90;;;;;;12504111;28;20060;-40
2021/12/30 11:34:37;;;;;;;9.40;6.60;;;13.10;99.90;;;;;;12520781;28;20082;-40
2021/12/30 11:40:40;;;;;;;9.23;6.47;;;13.10;99.90;;;;;;12521928;28;20052;-39
2021/12/30 11:46:46;;;;;;;8.63;6.75;;;13.20;99.90;;;;;;12523407;28;20049;-39
2021/12/30 11:52:51;;;;;;;8.90;6.18;;;13.20;99.90;;;;;;12521325;28;20048;-39
2021/12/30 11:58:55;;;;;;;9.40;6.40;;;13.20;99.90;;;;;;12523115;28;20056;-39
2021/12/30 12:04:57;;;;;;;13.45;5.68;;;13.30;99.90;;;;;;12519550;28;20084;-40
2021/12/30 12:11:16;;;;;;;7.20;5.65;;;13.30;99.90;;;;;;12522528;28;20061;-39
2021/12/30 12:17:51;;;;;;;6.72;5.20;;;13.20;99.90;;;;;;12523536;28;20067;-39
2021/12/30 12:23:53;;;;;;;9.73;5.13;;;13.30;99.90;;;;;;12466408;28;20052;-39
2021/12/30 12:29:57;;;;;;;7.82;4.72;;;13.40;99.90;;;;;;12517534;28;20052;-39
2021/12/30 12:36:02;;;;;;;5.82;4.25;;;13.40;99.90;;;;;;12518148;28;20053;-41
2021/12/30 12:42:06;;;;;;;5.53;3.88;;;13.40;99.90;;;;;;12518270;28;20941;-38
2021/12/30 12:48:17;;;;;;;4.97;3.65;;;13.30;99.90;;;;;;12499138;28;20056;-39
2021/12/30 12:54:38;;;;;;;7.93;3.63;;;13.40;99.90;;;;;;12511321;28;20053;-39
2021/12/30 13:00:40;;;;;;;4.65;2.70;;;13.40;99.90;;;;;;12520760;28;20493;-39
2021/12/30 13:06:44;;;;;;;7.05;3.25;;;13.40;99.90;;;;;;12516955;28;20045;-40
2021/12/30 13:12:47;;;;;;;6.15;2.88;;;13.40;99.90;;;;;;12517453;28;20053;-40
2021/12/30 13:19:00;;;;;;;5.18;2.70;;;13.50;99.90;;;;;;12527634;28;20081;-40
2021/12/30 13:25:04;;;;;;;8.05;3.08;;;13.50;99.90;;;;;;12526999;28;20077;-40
2021/12/30 13:31:09;;;;;;;7.55;2.95;;;13.40;99.90;;;;;;12529910;28;20064;-40
2021/12/30 13:37:15;;;;;;;9.25;3.22;;;13.40;99.90;;;;;;12537800;28;20092;-40
2021/12/30 13:43:21;;;;;;;5.03;2.47;;;13.40;99.90;;;;;;12529839;28;20045;-39
2021/12/30 13:49:24;;;;;;;7.80;2.70;;;13.50;99.90;;;;;;12530412;28;20060;-40
2021/12/30 13:55:36;;;;;;;6.68;3.10;;;13.50;99.90;;;;;;12531599;28;20060;-40
2021/12/30 14:01:40;;;;;;;7.57;2.83;;;13.40;99.90;;;;;;12527530;28;20064;-39
2021/12/30 14:07:45;;;;;;;9.98;3.53;;;13.40;99.90;;;;;;12498413;28;20802;-39
2021/12/30 14:13:47;;;;;;;7.75;3.40;;;13.40;99.90;;;;;;12523129;28;20041;-38
2021/12/30 14:19:50;;;;;;;9.15;3.65;;;13.30;99.90;;;;;;12520147;28;20113;-40
2021/12/30 14:25:55;;;;;;;11.57;3.50;;;13.30;99.90;;;;;;12522380;28;20163;-39
2021/12/30 14:32:02;;;;;;;8.02;3.58;;;13.30;99.90;;;;;;12522546;28;20128;-40
2021/12/30 14:38:06;;;;;;;10.23;3.67;;;13.30;99.90;;;;;;12523285;28;20057;-39
2021/12/30 14:44:11;;;;;;;9.60;3.55;;;13.20;99.90;;;;;;12525259;28;20056;-39
2021/12/30 14:50:24;;;;;;;10.77;3.75;;;13.10;99.90;;;;;;12523310;28;20045;-41
2021/12/30 14:56:27;;;;;;;10.98;4.22;;;13.10;99.90;;;;;;12518948;28;20680;-40
2021/12/30 15:02:31;;;;;;;10.43;3.38;;;13.20;99.90;;;;;;12505904;28;20052;-39
2021/12/30 15:08:33;;;;;;;;;;;13.20;99.90;;;;;;12524968;28;20394;-40
2021/12/30 15:14:35;;;;;;;16.95;4.55;;;13.30;99.90;;;;;;12523334;28;19924;-38
2021/12/30 15:20:38;;;;;;;8.98;4.22;;;13.20;99.90;;;;;;12522614;28;20097;-39
2021/12/30 15:26:40;;;;;;;13.05;4.70;;;13.10;99.90;;;;;;12521838;28;20064;-40
2021/12/30 15:32:43;;;;;;;12.55;4.40;;;13.00;99.90;;;;;;12522745;28;20128;-39
2021/12/30 15:38:45;;;;;;;11.00;4.78;;;13.00;99.90;;;;;;12520407;28;20076;-39
2021/12/30 15:44:48;;;;;;;11.95;4.70;;;13.00;99.90;;;;;;12520406;28;20049;-40
2021/12/30 15:50:51;;;;;;;12.20;5.38;;;13.00;99.90;;;;;;12521181;28;20049;-39
2021/12/30 15:56:54;;;;;;;15.82;5.55;;;12.90;99.90;;;;;;12524346;28;20102;-40
2021/12/30 16:03:00;;;;;;;12.80;6.10;;;12.90;99.90;;;;;;12504743;28;20109;-41
2021/12/30 16:09:08;;;;;;;15.07;6.40;;;12.80;99.90;;;;;;12503888;28;20049;-39
2021/12/30 16:15:13;;;;;;;12.68;6.07;;;12.80;99.90;;;;;;12497827;28;20091;-40
2021/12/30 16:21:15;;;;;;;11.35;5.93;;;12.80;99.90;;;;;;12522192;28;20080;-40
2021/12/30 16:27:20;;;;;;;12.77;6.50;;;12.90;99.90;;;;;;12519049;28;20485;-40
2021/12/30 16:33:24;;;;;;;14.77;6.80;;;12.90;99.90;;;;;;12522395;28;20045;-39
2021/12/30 16:39:26;;;;;;;9.25;6.97;;;13.00;99.90;;;;;;12515701;28;20060;-38
2021/12/30 16:45:32;;;;;;;13.80;7.88;;;12.80;99.90;;;;;;12494497;28;20519;-38
2021/12/30 16:51:35;;;;;;;12.80;9.18;;;12.80;99.90;;;;;;12522469;28;20140;-40
2021/12/30 16:57:41;;;;;;;19.77;9.40;;;12.70;99.90;;;;;;12526551;28;20061;-39
2021/12/30 17:03:44;;;;;;;13.75;9.63;;;12.50;99.90;;;;;;12524756;28;20082;-40
2021/12/30 17:09:47;;;;;;;13.18;9.90;;;12.50;99.90;;;;;;12526806;28;20085;-39
2021/12/30 17:15:49;;;;;;;17.38;10.88;;;12.50;99.90;;;;;;12524777;28;20412;-39
2021/12/30 17:21:51;;;;;;;16.05;9.82;;;12.50;99.90;;;;;;12522380;28;20088;-40
2021/12/30 17:27:56;;;;;;;14.02;9.30;;;12.50;99.90;;;;;;12524832;28;20053;-38
2021/12/30 17:34:01;;;;;;;15.88;8.82;;;12.60;99.90;;;;;;12523394;28;20399;-39
2021/12/30 17:40:08;;;;;;;12.68;9.30;;;12.70;99.90;;;;;;12520059;28;20056;-38
2021/12/30 17:46:10;;;;;;;16.05;9.32;;;12.60;99.90;;;;;;12524309;28;20053;-39
2021/12/30 17:52:12;;;;;;;14.50;9.38;;;12.60;99.90;;;;;;12521768;28;20044;-39
2021/12/30 17:58:14;;;;;;;17.27;9.98;;;12.50;99.90;;;;;;12523858;28;20394;-40
2021/12/30 18:04:17;;;;;;;19.90;9.25;;;12.50;99.90;;;;;;12519643;28;20080;-39
2021/12/30 18:10:19;;;;;;;16.00;9.95;;;12.50;99.90;;;;;;12523476;28;20152;-40
2021/12/30 18:16:21;;;;;;;19.65;11.50;;;12.50;99.90;;;;;;12519436;28;20051;-42
2021/12/30 18:22:26;;;;;;;19.23;12.38;;;12.50;99.90;;;;;;12522594;28;20072;-39
2021/12/30 18:28:29;;;;;;;19.17;12.88;;;12.40;99.90;;;;;;12520885;28;20585;-40
2021/12/30 18:34:32;;;;;;;21.55;15.18;;;12.30;99.90;;;;;;12516056;28;20053;-40
2021/12/30 18:40:34;;;;;;;23.87;16.47;;;12.30;99.90;;;;;;12520299;28;20076;-40
2021/12/30 18:46:36;;;;;;;23.50;17.23;;;12.40;99.90;;;;;;12517996;28;20049;-39
2021/12/30 18:52:40;;;;;;;22.25;17.70;;;12.50;99.90;;;;;;12521873;28;20346;-40
2021/12/30 18:58:44;;;;;;;20.48;18.40;;;12.60;99.90;;;;;;12519505;28;20135;-39
2021/12/30 19:04:46;;;;;;;20.98;18.30;;;12.70;99.90;;;;;;12520908;28;20048;-40
2021/12/30 19:10:48;;;;;;;25.75;18.02;;;12.90;99.90;;;;;;12518515;28;20749;-39
2021/12/30 19:16:50;;;;;;;21.27;16.65;;;12.90;99.90;;;;;;12520204;28;20553;-39
2021/12/30 19:22:52;;;;;;;19.83;16.92;;;13.00;99.90;;;;;;12517888;28;20044;-39
2021/12/30 19:28:54;;;;;;;19.95;16.60;;;13.00;99.90;;;;;;12522178;28;20127;-38
2021/12/30 19:34:56;;;;;;;21.25;17.02;;;13.00;99.90;;;;;;12511317;28;20055;-40
2021/12/30 19:41:01;;;;;;;17.80;14.70;;;13.10;99.90;;;;;;12510158;28;20045;-40
2021/12/30 19:47:03;;;;;;;18.63;15.65;;;13.10;99.90;;;;;;12512841;28;20047;-41
2021/12/30 19:53:06;;;;;;;20.70;14.50;;;13.10;99.90;;;;;;12513321;28;20167;-39
2021/12/30 19:59:08;;;;;;;20.00;13.53;;;13.20;99.90;;;;;;12518767;28;20573;-40
2021/12/30 20:05:11;;;;;;;18.42;12.68;;;13.20;99.90;;;;;;12517870;28;20658;-40
2021/12/30 20:11:13;;;;;;;16.15;12.93;;;13.20;99.90;;;;;;12517222;28;20059;-39
2021/12/30 20:17:16;;;;;;;15.80;11.88;;;13.10;99.90;;;;;;12514508;28;20080;-41
2021/12/30 20:23:18;;;;;;;14.27;11.90;;;13.10;99.90;;;;;;12516213;28;20135;-38
2021/12/30 20:29:20;;;;;;;13.02;10.73;;;13.10;99.90;;;;;;12516876;28;20156;-40
2021/12/30 20:35:23;;;;;;;12.55;10.10;;;13.10;99.90;;;;;;12516630;28;20045;-41
2021/12/30 20:41:26;;;;;;;12.82;10.00;;;13.20;99.90;;;;;;12517029;28;20072;-40
2021/12/30 20:47:29;;;;;;;11.90;8.93;;;13.20;99.90;;;;;;12515794;28;20051;-38
2021/12/30 20:53:32;;;;;;;11.70;8.90;;;13.20;99.90;;;;;;12517276;28;20083;-40
2021/12/30 20:59:33;;;;;;;13.95;10.38;;;13.20;99.90;;;;;;12513920;28;20049;-39
2021/12/30 21:05:38;;;;;;;13.05;9.82;;;13.10;99.90;;;;;;12507148;28;20108;-39
2021/12/30 21:11:40;;;;;;;;;;;13.00;99.90;;;;;;12515393;28;20084;-39
2021/12/30 21:17:42;;;;;;;12.45;9.38;;;13.00;99.90;;;;;;12498200;28;19920;-40
2021/12/30 21:23:45;;;;;;;10.80;8.85;;;13.10;99.90;;;;;;12514059;28;20455;-40
2021/12/30 21:29:48;;;;;;;10.30;7.60;;;13.10;99.90;;;;;;12514084;28;20536;-39
2021/12/30 21:35:53;;;;;;;9.27;7.03;;;13.20;99.90;;;;;;12517010;28;20040;-39
2021/12/30 21:41:57;;;;;;;9.25;7.32;;;13.20;99.90;;;;;;12517646;28;20052;-39
2021/12/30 21:47:59;;;;;;;9.57;6.25;;;13.10;99.90;;;;;;12524105;28;20159;-39
2021/12/30 21:54:01;;;;;;;8.35;6.32;;;13.10;99.90;;;;;;12522860;28;20037;-39
2021/12/30 22:00:10;;;;;;;6.72;5.82;;;13.20;99.90;;;;;;12522204;28;20167;-39
2021/12/30 22:06:12;;;;;;;8.45;6.25;;;13.20;99.90;;;;;;12523337;28;20084;-40
2021/12/30 22:12:14;;;;;;;7.97;5.47;;;13.20;99.90;;;;;;12522540;28;20113;-40
2021/12/30 22:18:17;;;;;;;6.57;5.03;;;13.20;99.90;;;;;;12524315;28;20467;-41
2021/12/30 22:24:20;;;;;;;8.30;4.82;;;13.30;99.90;;;;;;12524560;28;20126;-40
2021/12/30 22:30:22;;;;;;;8.43;5.53;;;13.30;99.90;;;;;;12521485;28;20060;-39
2021/12/30 22:36:24;;;;;;;6.35;4.88;;;13.30;99.90;;;;;;12521136;28;20574;-40
2021/12/30 22:42:26;;;;;;;8.77;4.55;;;13.20;99.90;;;;;;12520276;28;20098;-40
2021/12/30 22:48:28;;;;;;;6.63;4.63;;;13.20;99.90;;;;;;12518688;28;20078;-39
2021/12/30 22:54:31;;;;;;;6.07;4.35;;;13.20;99.90;;;;;;12523203;28;20152;-40
2021/12/30 23:00:49;;;;;;;7.47;3.80;;;13.20;99.90;;;;;;12521995;28;20140;-40
2021/12/30 23:06:51;;;;;;;6.95;4.10;;;13.20;99.90;;;;;;12520730;28;20132;-39
2021/12/30 23:12:53;;;;;;;6.38;4.13;;;13.30;99.90;;;;;;12517626;28;20094;-40
2021/12/30 23:18:55;;;;;;;9.20;4.70;;;13.30;99.90;;;;;;12518111;28;20049;-39
2021/12/30 23:24:57;;;;;;;9.77;5.97;;;13.30;99.90;;;;;;12516683;28;20049;-39
2021/12/30 23:30:59;;;;;;;9.45;6.55;;;13.30;99.90;;;;;;12519941;28;20048;-39
2021/12/30 23:37:01;;;;;;;8.35;6.35;;;13.30;99.90;;;;;;12518014;28;20110;-38
2021/12/30 23:43:03;;;;;;;11.07;5.60;;;13.20;99.90;;;;;;12519559;28;20202;-40
2021/12/30 23:49:11;;;;;;;6.93;5.13;;;13.30;99.90;;;;;;12518692;28;20048;-40
2021/12/30 23:55:14;;;;;;;7.05;4.32;;;13.30;99.90;;;;;;12519181;28;20758;-40
